ASN logo
ASN Wikibase Occurrence # 268899
Last updated: 30 November 2021
This information is added by users of ASN. Neither ASN nor the Flight Safety Foundation are responsible for the completeness or correctness of this information. If you feel this information is incomplete or incorrect, you can submit corrected information.

Date:13-OCT-2021
Time:22:45 LT
Type:Silhouette image of generic SW4 model; specific model in this crash may look slightly different
Swearingen SA227-AT Merlin IVC
Owner/operator:Ameriflight
Registration: N244DH
MSN: AT-618B
Fatalities:Fatalities: 0 / Occupants: 0
Other fatalities:0
Aircraft damage: Minor
Location:El Paso International Airport, TX (ELP/KELP) -   United States of America
Phase: Landing
Nature:Cargo
Departure airport:La Crosse Municipal Airport, WI (LSE/KLSE)
Destination airport:El Paso International Airport, TX (ELP/KELP)
Narrative:
Experienced a runway 26L excursion after landing.

Weather at the incident time (0445Z, 14 Oct.):
KELP 140451Z 00000KT 10SM CLR 17/02 A2990 RMK AO2 SLP077 T01720022

Sources:

https://globe.adsbexchange.com/?icao=a23f2e&lat=31.802&lon=-106.372&zoom=18.8&showTrace=2021-10-14&trackLabels
https://flightaware.com/live/flight/N244DH
FAA ASIAS


Revision history:

Date/timeContributorUpdates
15-Oct-2021 16:08 aaronwk Added
15-Oct-2021 16:09 harro Updated [Aircraft type]
15-Oct-2021 16:11 harro Updated [Date, Time, Location, Narrative]

Corrections or additions? ... Edit this accident description